createdAt,value
2023-02-16T00:01:52.087Z,99922.20
2023-02-16T00:04:27.876Z,99923.08
2023-02-16T00:07:01.578Z,99926.61
2023-02-16T00:09:35.112Z,99923.95
2023-02-16T00:12:34.701Z,99929.06
2023-02-16T00:15:19.270Z,99928.19
2023-02-16T00:17:53.251Z,99927.06
2023-02-16T00:20:27.448Z,99921.08
2023-02-16T00:23:00.969Z,99922.30
2023-02-16T00:25:34.375Z,99915.06
2023-02-16T00:28:10.983Z,99915.50
2023-02-16T00:30:44.595Z,99916.52
2023-02-16T00:33:21.292Z,99905.39
2023-02-16T00:35:54.919Z,99913.72
2023-02-16T00:38:28.396Z,99920.41
2023-02-16T00:41:02.301Z,99912.50
2023-02-16T00:43:35.827Z,99912.50
2023-02-16T00:46:10.400Z,99909.07
2023-02-16T00:48:45.283Z,99911.73
2023-02-16T00:51:25.929Z,99900.53
2023-02-16T00:53:54.126Z,99906.52
2023-02-16T00:56:27.588Z,99904.84
2023-02-16T00:59:02.057Z,99908.97
2023-02-16T01:01:37.105Z,99907.95
2023-02-16T01:04:16.887Z,99905.51
2023-02-16T01:07:07.932Z,99914.84
2023-02-16T01:09:59.138Z,99909.84
2023-02-16T01:12:35.060Z,99903.62
2023-02-16T01:15:14.404Z,99911.08
2023-02-16T01:17:46.817Z,99910.09
2023-02-16T01:20:22.976Z,99908.52
2023-02-16T01:22:56.513Z,99911.64
2023-02-16T01:25:29.835Z,99914.30
2023-02-16T01:28:03.099Z,99912.41
2023-02-16T01:30:36.619Z,99910.41
2023-02-16T01:33:14.949Z,99912.86
2023-02-16T01:35:48.605Z,99912.52
2023-02-16T01:38:24.055Z,99908.06
2023-02-16T01:41:04.149Z,99919.96
2023-02-16T01:43:42.377Z,99911.53
2023-02-16T01:46:18.817Z,99912.62
2023-02-16T01:48:52.305Z,99910.87
2023-02-16T01:51:28.506Z,99915.31
2023-02-16T01:54:04.844Z,99915.42
2023-02-16T01:56:41.239Z,99912.62
2023-02-16T01:59:18.486Z,99919.96
2023-02-16T02:01:56.792Z,99920.52
2023-02-16T02:04:51.112Z,99924.40
2023-02-16T02:07:27.626Z,99924.05
2023-02-16T02:10:05.269Z,99920.16
2023-02-16T02:12:44.622Z,99921.70
2023-02-16T02:15:20.977Z,99924.14
2023-02-16T02:17:54.555Z,99925.92
2023-02-16T02:20:50.711Z,99924.25
2023-02-16T02:23:40.710Z,99918.38
2023-02-16T02:26:53.106Z,99923.73
2023-02-16T02:29:58.514Z,99920.52
2023-02-16T02:32:42.883Z,99927.92
2023-02-16T02:35:24.518Z,99923.38
2023-02-16T02:38:01.126Z,99927.46
2023-02-16T02:40:38.875Z,99926.59
2023-02-16T02:43:17.196Z,99925.82
2023-02-16T02:45:53.381Z,99931.91
2023-02-16T02:48:28.408Z,99931.39
2023-02-16T02:51:21.440Z,99932.62
2023-02-16T02:54:16.472Z,99931.16
2023-02-16T02:57:10.563Z,99932.48
2023-02-16T03:00:04.735Z,99929.92
2023-02-16T03:02:40.079Z,99935.83
2023-02-16T03:05:16.542Z,99920.16
2023-02-16T03:07:52.567Z,99926.28
2023-02-16T03:10:45.476Z,99923.94
2023-02-16T03:13:21.949Z,99924.40
2023-02-16T03:15:57.549Z,99918.48
2023-02-16T03:18:50.444Z,99918.73
2023-02-16T03:21:42.283Z,99921.30
2023-02-16T03:24:36.326Z,99923.73
2023-02-16T03:27:29.115Z,99916.84
2023-02-16T03:30:05.115Z,99915.72
2023-02-16T03:32:39.143Z,99918.84
2023-02-16T03:35:13.172Z,99917.05
2023-02-16T03:37:47.078Z,99921.60
2023-02-16T03:40:30.155Z,99923.59
2023-02-16T03:43:05.796Z,99912.61
2023-02-16T03:45:41.659Z,99915.94
2023-02-16T03:48:15.427Z,99909.08
2023-02-16T03:50:48.943Z,99919.30
2023-02-16T03:53:22.650Z,99909.08
2023-02-16T03:55:56.275Z,99919.05
2023-02-16T03:58:29.703Z,99919.71
2023-02-16T04:01:03.544Z,99916.39
2023-02-16T04:03:37.240Z,99921.39
2023-02-16T04:06:11.107Z,99924.71
2023-02-16T04:08:44.929Z,99920.38
2023-02-16T04:11:40.478Z,99918.73
2023-02-16T04:14:14.175Z,99916.06
2023-02-16T04:16:47.726Z,99908.05
2023-02-16T04:19:21.469Z,99909.59
2023-02-16T04:21:54.944Z,99906.27
2023-02-16T04:24:28.388Z,99908.16
2023-02-16T04:27:01.707Z,99898.86
2023-02-16T04:29:36.877Z,99904.84
2023-02-16T04:32:10.784Z,99899.95
2023-02-16T04:34:44.286Z,99894.32
2023-02-16T04:37:17.703Z,99897.85
2023-02-16T04:39:51.109Z,99899.53
2023-02-16T04:42:24.675Z,99898.62
2023-02-16T04:44:58.112Z,99897.39
2023-02-16T04:47:31.470Z,99903.30
2023-02-16T04:50:04.908Z,99912.61
2023-02-16T04:52:39.173Z,99907.39
2023-02-16T04:55:12.768Z,99911.73
2023-02-16T04:57:46.750Z,99904.63
2023-02-16T05:00:22.061Z,99908.93
2023-02-16T05:02:55.476Z,99908.16
2023-02-16T05:05:28.843Z,99904.38
2023-02-16T05:08:02.607Z,99899.52
2023-02-16T05:10:35.730Z,99898.51
2023-02-16T05:13:28.341Z,99905.39
2023-02-16T05:16:02.095Z,99906.72
2023-02-16T05:18:36.035Z,99907.27
2023-02-16T05:21:27.279Z,99902.17
2023-02-16T05:24:01.449Z,99906.72
2023-02-16T05:26:35.672Z,99907.48
2023-02-16T05:29:09.749Z,99916.93
2023-02-16T05:31:43.238Z,99917.91
2023-02-16T05:34:16.924Z,99916.93
2023-02-16T05:36:50.437Z,99910.15
2023-02-16T05:39:24.649Z,99911.83
2023-02-16T05:41:58.161Z,99916.16
2023-02-16T05:44:31.313Z,99913.27
2023-02-16T05:47:04.937Z,99907.08
2023-02-16T05:49:38.560Z,99904.84
2023-02-16T05:52:12.250Z,99914.51
2023-02-16T05:54:45.371Z,99913.84
2023-02-16T05:57:18.862Z,99906.64
2023-02-16T05:59:54.716Z,99912.97
2023-02-16T06:02:28.246Z,99909.85
2023-02-16T06:05:01.821Z,99912.41
2023-02-16T06:07:35.603Z,99898.97
2023-02-16T06:10:10.926Z,99902.84
2023-02-16T06:12:44.988Z,99903.86
2023-02-16T06:15:18.883Z,99904.31
2023-02-16T06:17:52.598Z,99906.50
2023-02-16T06:20:26.185Z,99903.63
2023-02-16T06:22:59.691Z,99911.94
2023-02-16T06:25:32.883Z,99903.50
2023-02-16T06:28:06.696Z,99904.38
2023-02-16T06:30:40.222Z,99907.70
2023-02-16T06:33:14.807Z,99906.59
2023-02-16T06:35:48.388Z,99901.89
2023-02-16T06:38:21.855Z,99913.66
2023-02-16T06:40:55.854Z,99901.41
2023-02-16T06:43:30.889Z,99895.83
2023-02-16T06:46:04.916Z,99893.59
2023-02-16T06:48:38.327Z,99896.16
2023-02-16T06:51:11.615Z,99897.80
2023-02-16T06:53:46.840Z,99902.72
2023-02-16T06:56:20.232Z,99897.80
2023-02-16T06:58:53.669Z,99896.78
2023-02-16T07:01:27.327Z,99898.96
2023-02-16T07:04:01.190Z,99895.47
2023-02-16T07:06:35.215Z,99896.77
2023-02-16T07:09:10.636Z,99896.99
2023-02-16T07:11:44.232Z,99898.55
2023-02-16T07:14:17.703Z,99891.58
2023-02-16T07:16:53.422Z,99888.56
2023-02-16T07:19:27.229Z,99895.17
2023-02-16T07:22:00.791Z,99891.84
2023-02-16T07:24:34.627Z,99887.23
2023-02-16T07:27:08.788Z,99890.80
2023-02-16T07:29:42.407Z,99891.57
2023-02-16T07:32:15.880Z,99888.05
2023-02-16T07:34:49.751Z,99883.41
2023-02-16T07:37:23.401Z,99884.58
2023-02-16T07:39:56.766Z,99878.16
2023-02-16T07:42:33.876Z,99878.13
2023-02-16T07:45:10.752Z,99878.51
2023-02-16T07:47:44.226Z,99872.77
2023-02-16T07:50:17.761Z,99878.03
2023-02-16T07:52:51.595Z,99875.11
2023-02-16T07:55:24.981Z,99889.61
2023-02-16T07:57:58.604Z,99880.95
2023-02-16T08:00:32.124Z,99890.88
2023-02-16T08:03:06.127Z,99880.33
2023-02-16T08:05:39.448Z,99876.56
2023-02-16T08:08:12.874Z,99876.34
2023-02-16T08:10:46.400Z,99872.98
2023-02-16T08:13:20.054Z,99875.77
2023-02-16T08:15:53.459Z,99873.24
2023-02-16T08:18:26.933Z,99873.63
2023-02-16T08:21:04.742Z,99872.60
2023-02-16T08:23:35.184Z,99874.38
2023-02-16T08:26:12.415Z,99875.41
2023-02-16T08:28:47.165Z,99874.62
2023-02-16T08:31:23.379Z,99880.95
2023-02-16T08:33:58.067Z,99883.80
2023-02-16T08:36:34.086Z,99879.06
2023-02-16T08:39:12.137Z,99878.67
2023-02-16T08:41:49.984Z,99874.11
2023-02-16T08:44:22.948Z,99877.97
2023-02-16T08:46:57.546Z,99878.37
2023-02-16T08:49:31.311Z,99875.77
2023-02-16T08:52:05.528Z,99873.77
2023-02-16T08:54:38.807Z,99871.70
2023-02-16T08:57:12.233Z,99871.20
2023-02-16T08:59:45.377Z,99869.80
2023-02-16T09:02:18.733Z,99869.65
2023-02-16T09:04:52.932Z,99867.25
2023-02-16T09:07:26.307Z,99870.39
2023-02-16T09:09:59.863Z,99858.06
2023-02-16T09:12:36.805Z,99858.86
2023-02-16T09:15:12.214Z,99862.46
2023-02-16T09:17:46.703Z,99856.09
2023-02-16T09:20:21.441Z,99854.55
2023-02-16T09:22:55.240Z,99856.37
2023-02-16T09:25:28.663Z,99856.58
2023-02-16T09:28:02.217Z,99857.10
2023-02-16T09:30:36.358Z,99861.87
2023-02-16T09:33:10.077Z,99867.33
2023-02-16T09:35:43.710Z,99854.04
2023-02-16T09:38:17.899Z,99857.60
2023-02-16T09:40:51.490Z,99858.63
2023-02-16T09:43:30.047Z,99854.27
2023-02-16T09:46:04.728Z,99853.97
2023-02-16T09:48:42.935Z,99854.64
2023-02-16T09:51:21.001Z,99854.38
2023-02-16T09:53:58.292Z,99856.65
2023-02-16T09:56:35.144Z,99861.08
2023-02-16T09:59:12.851Z,99854.86
2023-02-16T10:01:47.317Z,99851.64
2023-02-16T10:04:28.194Z,99855.84
2023-02-16T10:07:08.249Z,99850.45
2023-02-16T10:09:43.988Z,99847.97
2023-02-16T10:12:20.507Z,99851.70
2023-02-16T10:14:56.394Z,99846.83
2023-02-16T10:17:32.865Z,99841.52
2023-02-16T10:20:10.355Z,99843.91
2023-02-16T10:22:47.493Z,99844.95
2023-02-16T10:25:24.309Z,99845.42
2023-02-16T10:28:01.822Z,99838.78
2023-02-16T10:30:36.883Z,99839.28
2023-02-16T10:33:14.507Z,99836.02
2023-02-16T10:35:49.964Z,99833.89
2023-02-16T10:38:27.029Z,99836.37
2023-02-16T10:41:03.420Z,99835.23
2023-02-16T10:43:43.482Z,99833.65
2023-02-16T10:46:20.862Z,99827.15
2023-02-16T10:48:55.374Z,99833.50
2023-02-16T10:51:31.824Z,99832.83
2023-02-16T10:54:08.935Z,99828.08
2023-02-16T10:56:54.414Z,99834.91
2023-02-16T10:59:31.882Z,99835.14
2023-02-16T11:02:12.282Z,99829.61
2023-02-16T11:04:47.751Z,99826.74
2023-02-16T11:07:23.569Z,99830.61
2023-02-16T11:10:02.091Z,99816.67
2023-02-16T11:12:38.074Z,99829.98
2023-02-16T11:15:24.271Z,99821.97
2023-02-16T11:18:00.073Z,99821.66
2023-02-16T11:20:36.916Z,99825.92
2023-02-16T11:23:19.010Z,99820.24
2023-02-16T11:25:59.563Z,99826.09
2023-02-16T11:28:36.163Z,99821.29
2023-02-16T11:31:19.033Z,99826.59
2023-02-16T11:34:03.764Z,99825.19
2023-02-16T11:36:39.606Z,99813.95
2023-02-16T11:39:18.629Z,99823.84
2023-02-16T11:41:55.177Z,99818.26
2023-02-16T11:44:32.491Z,99817.87
2023-02-16T11:47:09.143Z,99822.22
2023-02-16T11:49:43.644Z,99821.61
2023-02-16T11:55:27.810Z,99779.09
2023-02-16T11:58:01.640Z,99821.91
2023-02-16T12:00:35.039Z,99814.38
2023-02-16T12:03:21.823Z,99814.44
2023-02-16T12:06:05.037Z,99810.70
2023-02-16T12:08:49.372Z,99811.19
2023-02-16T12:11:29.178Z,99818.80
2023-02-16T12:14:11.667Z,99817.63
2023-02-16T12:19:35.135Z,99818.53
2023-02-16T12:22:19.545Z,99825.53
2023-02-16T12:24:58.550Z,99813.41
2023-02-16T12:27:34.814Z,99815.63
2023-02-16T12:30:12.127Z,99823.05
2023-02-16T12:32:58.056Z,99823.53
2023-02-16T12:35:42.212Z,99817.63
2023-02-16T12:38:22.624Z,99817.23
2023-02-16T12:40:59.627Z,99820.02
2023-02-16T12:43:38.483Z,99819.49
2023-02-16T12:46:17.909Z,99820.97
2023-02-16T12:48:54.431Z,99815.88
2023-02-16T12:51:31.314Z,99829.51
2023-02-16T12:54:09.429Z,99816.12
2023-02-16T12:56:45.729Z,99824.98
2023-02-16T12:59:22.917Z,99826.95
2023-02-16T13:01:57.583Z,99825.58
2023-02-16T13:04:33.978Z,99826.27
2023-02-16T13:07:12.446Z,99827.41
2023-02-16T13:09:50.486Z,99827.83
2023-02-16T13:12:28.347Z,99832.35
2023-02-16T13:15:04.593Z,99825.17
2023-02-16T13:17:41.642Z,99824.58
2023-02-16T13:20:17.535Z,99821.61
2023-02-16T13:23:11.297Z,99824.57
2023-02-16T13:26:10.005Z,99824.48
2023-02-16T13:28:55.900Z,99818.08
2023-02-16T13:31:40.339Z,99819.64
2023-02-16T13:34:48.041Z,99815.29
2023-02-16T13:37:40.311Z,99824.14
2023-02-16T13:40:42.534Z,99828.06
2023-02-16T13:43:31.838Z,99828.26
2023-02-16T13:46:09.600Z,99818.25
2023-02-16T13:48:49.104Z,99816.66
2023-02-16T13:51:24.905Z,99819.53
2023-02-16T13:54:00.620Z,99816.75
2023-02-16T13:56:38.899Z,99816.92
2023-02-16T14:00:04.626Z,99822.53
2023-02-16T14:02:58.696Z,99819.78
2023-02-16T14:05:35.224Z,99817.97
2023-02-16T14:08:24.316Z,99820.69
2023-02-16T14:11:10.019Z,99820.01
2023-02-16T14:13:51.767Z,99822.66
2023-02-16T14:16:34.900Z,99824.02
2023-02-16T14:19:20.509Z,99813.36
2023-02-16T14:21:54.891Z,99815.14
2023-02-16T14:24:34.140Z,99824.80
2023-02-16T14:27:09.717Z,99820.55
2023-02-16T14:29:46.199Z,99817.70
2023-02-16T14:32:28.536Z,99822.09
2023-02-16T14:35:08.353Z,99819.01
2023-02-16T14:37:44.614Z,99819.78
2023-02-16T14:40:24.067Z,99830.58
2023-02-16T14:43:00.902Z,99827.49
2023-02-16T14:46:00.034Z,99830.28
2023-02-16T14:49:13.158Z,99827.53
2023-02-16T14:55:43.732Z,99819.29
2023-02-16T14:58:28.396Z,99832.25
2023-02-16T15:01:07.643Z,99825.55
2023-02-16T15:03:46.872Z,99833.87
2023-02-16T15:06:27.901Z,99833.02
2023-02-16T15:09:04.176Z,99834.92
2023-02-16T15:11:41.893Z,99827.59
2023-02-16T15:14:18.345Z,99835.36
2023-02-16T15:16:53.434Z,99839.59
2023-02-16T15:19:30.088Z,99839.13
2023-02-16T15:22:22.863Z,99837.14
2023-02-16T15:25:05.891Z,99833.36
2023-02-16T15:27:39.438Z,99834.22
2023-02-16T15:30:24.680Z,99842.19
2023-02-16T15:33:00.847Z,99849.41
2023-02-16T15:35:38.448Z,99848.06
2023-02-16T15:38:22.312Z,99846.83
2023-02-16T15:40:57.512Z,99842.91
2023-02-16T15:43:34.643Z,99840.02
2023-02-16T15:46:10.143Z,99845.78
2023-02-16T15:48:44.067Z,99846.55
2023-02-16T15:51:20.940Z,99839.23
2023-02-16T15:53:57.693Z,99839.23
2023-02-16T15:56:38.132Z,99839.23
2023-02-16T15:59:35.317Z,99839.01
2023-02-16T16:02:15.522Z,99843.92
2023-02-16T16:04:54.697Z,99845.62
2023-02-16T16:07:31.366Z,99835.74
2023-02-16T16:10:07.392Z,99840.98
2023-02-16T16:12:41.490Z,99847.95
2023-02-16T16:15:22.159Z,99846.77
2023-02-16T16:17:58.394Z,99842.89
2023-02-16T16:23:28.537Z,99839.45
2023-02-16T16:26:02.794Z,99840.67
2023-02-16T16:28:38.202Z,99843.11
2023-02-16T16:31:13.857Z,99839.69
2023-02-16T16:33:58.746Z,99838.67
2023-02-16T16:36:33.784Z,99841.23
2023-02-16T16:39:17.271Z,99835.56
2023-02-16T16:42:09.325Z,99834.80
2023-02-16T16:44:45.475Z,99832.59
2023-02-16T16:47:26.721Z,99838.22
2023-02-16T16:50:01.950Z,99838.66
2023-02-16T16:52:44.381Z,99843.41
2023-02-16T16:55:33.235Z,99837.22
2023-02-16T16:58:08.997Z,99843.75
2023-02-16T17:00:43.920Z,99841.97
2023-02-16T17:03:18.839Z,99834.10
2023-02-16T17:05:52.438Z,99829.96
2023-02-16T17:08:25.890Z,99835.25
2023-02-16T17:10:59.795Z,99837.69
2023-02-16T17:13:33.262Z,99840.34
2023-02-16T17:16:08.686Z,99849.02
2023-02-16T17:18:42.342Z,99840.34
2023-02-16T17:21:17.210Z,99845.89
2023-02-16T17:23:53.390Z,99844.00
2023-02-16T17:26:26.814Z,99850.08
2023-02-16T17:29:00.527Z,99848.25
2023-02-16T17:31:34.097Z,99847.55
2023-02-16T17:34:07.724Z,99846.70
2023-02-16T17:36:41.196Z,99844.86
2023-02-16T17:39:14.568Z,99858.94
2023-02-16T17:41:47.676Z,99848.08
2023-02-16T17:44:21.061Z,99851.19
2023-02-16T17:46:55.809Z,99852.77
2023-02-16T17:49:29.509Z,99842.53
2023-02-16T17:52:02.880Z,99855.91
2023-02-16T17:54:36.288Z,99858.59
2023-02-16T17:57:11.359Z,99852.88
2023-02-16T17:59:45.006Z,99856.45
2023-02-16T18:02:18.638Z,99858.36
2023-02-16T18:04:52.036Z,99859.52
2023-02-16T18:07:25.482Z,99859.00
2023-02-16T18:09:59.238Z,99859.36
2023-02-16T18:12:34.333Z,99866.22
2023-02-16T18:15:09.192Z,99869.78
2023-02-16T18:17:42.892Z,99875.24
2023-02-16T18:20:19.788Z,99876.50
2023-02-16T18:22:53.146Z,99874.44
2023-02-16T18:25:27.176Z,99878.86
2023-02-16T18:28:01.177Z,99880.00
2023-02-16T18:30:34.857Z,99877.71
2023-02-16T18:33:08.626Z,99884.05
2023-02-16T18:35:42.894Z,99882.00
2023-02-16T18:38:16.641Z,99884.26
2023-02-16T18:40:50.402Z,99885.26
2023-02-16T18:43:24.422Z,99879.14
2023-02-16T18:45:58.263Z,99882.72
2023-02-16T18:48:31.743Z,99881.59
2023-02-16T18:51:09.156Z,99884.17
2023-02-16T18:53:42.532Z,99879.13
2023-02-16T18:56:16.438Z,99873.66
2023-02-16T18:58:49.945Z,99868.58
2023-02-16T19:01:30.187Z,99872.66
2023-02-16T19:04:05.446Z,99868.08
2023-02-16T19:06:39.011Z,99875.83
2023-02-16T19:09:12.343Z,99868.58
2023-02-16T19:11:46.226Z,99865.04
2023-02-16T19:14:19.853Z,99868.96
2023-02-16T19:16:53.320Z,99858.05
2023-02-16T19:19:26.552Z,99860.47
2023-02-16T19:21:59.899Z,99853.09
2023-02-16T19:24:35.148Z,99855.87
2023-02-16T19:27:08.651Z,99859.83
2023-02-16T19:29:42.751Z,99857.69
2023-02-16T19:32:16.038Z,99857.44
2023-02-16T19:34:49.563Z,99853.23
2023-02-16T19:37:22.864Z,99853.36
2023-02-16T19:39:56.640Z,99856.66
2023-02-16T19:42:29.993Z,99853.48
2023-02-16T19:45:04.066Z,99855.16
2023-02-16T19:47:37.280Z,99853.90
2023-02-16T19:50:11.984Z,99849.34
2023-02-16T19:52:45.356Z,99838.53
2023-02-16T19:55:18.900Z,99847.03
2023-02-16T19:57:52.210Z,99846.51
2023-02-16T20:00:26.259Z,99852.22
2023-02-16T20:02:59.975Z,99850.84
2023-02-16T20:05:33.649Z,99849.45
2023-02-16T20:08:07.474Z,99842.22
2023-02-16T20:10:43.997Z,99852.61
2023-02-16T20:13:17.687Z,99847.02
2023-02-16T20:15:51.185Z,99854.28
2023-02-16T20:18:24.752Z,99855.28
2023-02-16T20:21:02.196Z,99853.39
2023-02-16T20:23:35.558Z,99850.85
2023-02-16T20:26:11.384Z,99850.09
2023-02-16T20:28:45.244Z,99853.12
2023-02-16T20:31:20.874Z,99847.55
2023-02-16T20:33:54.627Z,99844.86
2023-02-16T20:36:28.532Z,99838.78
2023-02-16T20:39:01.938Z,99842.47
2023-02-16T20:41:35.661Z,99836.23
2023-02-16T20:44:10.230Z,99833.06
2023-02-16T20:46:44.038Z,99842.70
2023-02-16T20:49:17.448Z,99837.75
2023-02-16T20:51:50.827Z,99836.00
2023-02-16T20:54:24.081Z,99838.78
2023-02-16T20:56:57.540Z,99835.09
2023-02-16T20:59:31.508Z,99840.69
2023-02-16T21:02:05.287Z,99838.14
2023-02-16T21:04:39.741Z,99834.21
2023-02-16T21:07:13.057Z,99845.02
2023-02-16T21:09:46.614Z,99835.84
2023-02-16T21:12:20.052Z,99837.11
2023-02-16T21:14:53.479Z,99836.73
2023-02-16T21:17:26.871Z,99829.23
2023-02-16T21:20:02.161Z,99826.56
2023-02-16T21:22:35.734Z,99826.17
2023-02-16T21:25:11.185Z,99828.97
2023-02-16T21:27:44.540Z,99825.67
2023-02-16T21:30:19.011Z,99832.30
2023-02-16T21:32:53.549Z,99828.61
2023-02-16T21:35:26.979Z,99825.20
2023-02-16T21:38:00.535Z,99829.48
2023-02-16T21:40:51.774Z,99829.88
2023-02-16T21:43:25.402Z,99827.46
2023-02-16T21:46:02.706Z,99827.58
2023-02-16T21:48:48.683Z,99833.81
2023-02-16T21:51:24.916Z,99827.22
2023-02-16T21:53:58.627Z,99831.39
2023-02-16T21:56:38.123Z,99822.02
2023-02-16T21:59:14.063Z,99826.19
2023-02-16T22:01:51.329Z,99823.65
2023-02-16T22:04:26.454Z,99824.80
2023-02-16T22:06:59.664Z,99829.77
2023-02-16T22:09:33.233Z,99824.41
2023-02-16T22:12:06.925Z,99824.92
2023-02-16T22:14:40.265Z,99831.55
2023-02-16T22:17:13.634Z,99828.38
2023-02-16T22:19:48.626Z,99832.03
2023-02-16T22:22:21.713Z,99827.86
2023-02-16T22:24:54.954Z,99833.30
2023-02-16T22:27:28.319Z,99833.81
2023-02-16T22:30:01.555Z,99834.33
2023-02-16T22:32:36.468Z,99837.11
2023-02-16T22:35:10.798Z,99835.84
2023-02-16T22:37:44.354Z,99832.02
2023-02-16T22:40:18.233Z,99829.86
2023-02-16T22:42:51.283Z,99825.66
2023-02-16T22:45:24.981Z,99828.95
2023-02-16T22:47:58.759Z,99825.42
2023-02-16T22:50:32.320Z,99820.33
2023-02-16T22:53:05.891Z,99822.23
2023-02-16T22:55:40.704Z,99823.13
2023-02-16T22:58:14.176Z,99820.86
2023-02-16T23:00:48.933Z,99818.95
2023-02-16T23:03:22.533Z,99823.28
2023-02-16T23:05:56.443Z,99813.59
2023-02-16T23:08:30.017Z,99806.36
2023-02-16T23:11:05.899Z,99816.52
2023-02-16T23:13:39.731Z,99809.66
2023-02-16T23:16:15.725Z,99815.37
2023-02-16T23:18:49.267Z,99814.47
2023-02-16T23:21:23.850Z,99816.73
2023-02-16T23:23:58.222Z,99810.77
2023-02-16T23:26:33.811Z,99809.41
2023-02-16T23:29:08.200Z,99806.36
2023-02-16T23:31:44.505Z,99807.86
2023-02-16T23:34:18.611Z,99802.39
2023-02-16T23:36:51.992Z,99811.16
2023-02-16T23:39:25.655Z,99802.66
2023-02-16T23:41:59.361Z,99807.97
2023-02-16T23:44:32.795Z,99808.36
2023-02-16T23:47:06.457Z,99802.52
2023-02-16T23:49:40.014Z,99796.05
2023-02-16T23:52:13.482Z,99804.44
2023-02-16T23:54:47.055Z,99798.44
2023-02-16T23:57:20.692Z,99803.93
2023-02-16T23:59:54.016Z,99804.69
